createdAt,value
2022-08-14T00:00:22.210Z,63.40
2022-08-14T00:01:24.659Z,63.28
2022-08-14T00:02:31.421Z,63.24
2022-08-14T00:03:34.230Z,63.34
2022-08-14T00:04:42.469Z,63.50
2022-08-14T00:05:47.181Z,63.38
2022-08-14T00:07:02.794Z,63.71
2022-08-14T00:08:04.778Z,63.43
2022-08-14T00:09:17.653Z,63.60
2022-08-14T00:10:49.593Z,63.46
2022-08-14T00:11:44.753Z,63.50
2022-08-14T00:12:56.635Z,63.41
2022-08-14T00:14:01.562Z,63.40
2022-08-14T00:15:09.070Z,63.50
2022-08-14T00:16:41.575Z,63.30
2022-08-14T00:17:38.056Z,63.42
2022-08-14T00:19:06.790Z,63.52
2022-08-14T00:20:12.897Z,63.66
2022-08-14T00:21:16.579Z,63.65
2022-08-14T00:22:44.702Z,63.80
2022-08-14T00:23:44.559Z,63.77
2022-08-14T00:24:56.049Z,63.83
2022-08-14T00:26:06.759Z,63.79
2022-08-14T00:27:10.578Z,64.02
2022-08-14T00:28:17.752Z,63.95
2022-08-14T00:29:20.467Z,64.11
2022-08-14T00:30:23.560Z,64.07
2022-08-14T00:31:44.148Z,64.13
2022-08-14T00:32:52.832Z,64.26
2022-08-14T00:34:35.180Z,64.21
2022-08-14T00:36:34.272Z,64.18
2022-08-14T00:36:48.704Z,64.43
2022-08-14T00:37:52.885Z,64.46
2022-08-14T00:38:55.938Z,64.54
2022-08-14T00:39:58.374Z,64.45
2022-08-14T00:41:05.118Z,64.83
2022-08-14T00:42:07.639Z,64.63
2022-08-14T00:43:24.594Z,64.68
2022-08-14T00:44:33.816Z,65.17
2022-08-14T00:45:36.913Z,64.75
2022-08-14T00:46:39.193Z,64.78
2022-08-14T00:47:45.188Z,64.66
2022-08-14T00:48:49.069Z,64.83
2022-08-14T00:49:53.458Z,64.89
2022-08-14T00:50:55.549Z,64.89
2022-08-14T00:51:59.941Z,64.93
2022-08-14T00:53:04.322Z,64.94
2022-08-14T00:54:16.716Z,64.99
2022-08-14T00:55:27.855Z,65.07
2022-08-14T00:56:33.395Z,65.09
2022-08-14T00:57:36.450Z,65.24
2022-08-14T00:58:45.248Z,65.00
2022-08-14T00:59:51.233Z,65.01
2022-08-14T01:00:57.817Z,65.07
2022-08-14T01:02:02.926Z,65.02
2022-08-14T01:03:07.920Z,65.04
2022-08-14T01:04:37.662Z,64.99
2022-08-14T01:05:41.734Z,65.19
2022-08-14T01:06:55.338Z,65.09
2022-08-14T01:07:59.395Z,65.24
2022-08-14T01:09:05.185Z,65.29
2022-08-14T01:10:08.247Z,65.44
2022-08-14T01:11:19.240Z,65.24
2022-08-14T01:12:27.029Z,65.75
2022-08-14T01:13:42.590Z,65.60
2022-08-14T01:14:45.618Z,65.66
2022-08-14T01:15:58.769Z,65.57
2022-08-14T01:17:08.943Z,65.67
2022-08-14T01:18:30.272Z,65.46
2022-08-14T01:19:50.920Z,65.61
2022-08-14T01:21:07.239Z,65.59
2022-08-14T01:22:12.278Z,65.72
2022-08-14T01:23:18.508Z,65.78
2022-08-14T01:24:30.622Z,65.82
2022-08-14T01:25:37.526Z,65.80
2022-08-14T01:26:50.577Z,66.01
2022-08-14T01:27:57.306Z,65.89
2022-08-14T01:29:00.831Z,66.14
2022-08-14T01:30:06.856Z,66.03
2022-08-14T01:31:12.444Z,65.97
2022-08-14T01:32:22.927Z,66.22
2022-08-14T01:33:29.230Z,66.21
2022-08-14T01:35:20.662Z,66.20
2022-08-14T01:36:03.910Z,66.31
2022-08-14T01:37:11.948Z,66.11
2022-08-14T01:38:18.947Z,66.26
2022-08-14T01:39:25.129Z,66.49
2022-08-14T01:40:36.985Z,66.27
2022-08-14T01:41:53.498Z,66.45
2022-08-14T01:42:57.800Z,66.55
2022-08-14T01:44:03.386Z,66.52
2022-08-14T01:45:12.714Z,66.97
2022-08-14T01:46:24.382Z,66.96
2022-08-14T01:47:27.404Z,67.18
2022-08-14T01:48:44.237Z,67.23
2022-08-14T01:49:59.282Z,67.33
2022-08-14T01:51:05.073Z,67.50
2022-08-14T01:52:34.558Z,67.32
2022-08-14T01:53:54.624Z,67.59
2022-08-14T01:54:58.016Z,67.65
2022-08-14T01:56:06.673Z,67.72
2022-08-14T01:57:15.233Z,67.73
2022-08-14T01:58:28.598Z,67.79
2022-08-14T01:59:38.185Z,67.88
2022-08-14T02:00:40.622Z,67.84
2022-08-14T02:01:51.346Z,67.92
2022-08-14T02:03:00.296Z,68.05
2022-08-14T02:04:03.831Z,67.92
2022-08-14T02:05:08.496Z,68.19
2022-08-14T02:06:33.424Z,68.18
2022-08-14T02:07:53.424Z,68.17
2022-08-14T02:08:59.525Z,68.36
2022-08-14T02:10:01.548Z,68.42
2022-08-14T02:11:20.262Z,68.48
2022-08-14T02:12:26.394Z,68.65
2022-08-14T02:13:32.325Z,68.63
2022-08-14T02:14:40.330Z,68.61
2022-08-14T02:16:21.957Z,68.73
2022-08-14T02:17:25.620Z,68.48
2022-08-14T02:18:31.988Z,68.65
2022-08-14T02:19:35.781Z,68.90
2022-08-14T02:20:37.803Z,68.99
2022-08-14T02:21:43.475Z,69.06
2022-08-14T02:22:48.428Z,68.96
2022-08-14T02:23:54.266Z,69.09
2022-08-14T02:24:56.631Z,69.42
2022-08-14T02:26:24.399Z,69.32
2022-08-14T02:28:26.018Z,69.37
2022-08-14T02:28:58.555Z,69.27
2022-08-14T02:30:03.091Z,69.38
2022-08-14T02:31:09.014Z,69.39
2022-08-14T02:32:30.043Z,69.56
2022-08-14T02:33:34.273Z,69.48
2022-08-14T02:34:43.153Z,69.45
2022-08-14T02:35:53.088Z,69.59
2022-08-14T02:37:03.865Z,69.59
2022-08-14T02:38:11.950Z,69.41
2022-08-14T02:39:34.568Z,69.69
2022-08-14T02:40:38.417Z,69.39
2022-08-14T02:41:52.649Z,69.45
2022-08-14T02:43:02.655Z,69.68
2022-08-14T02:44:09.175Z,69.63
2022-08-14T02:45:12.640Z,69.80
2022-08-14T02:46:20.483Z,69.74
2022-08-14T02:47:28.424Z,69.74
2022-08-14T02:49:01.942Z,69.70
2022-08-14T02:49:59.360Z,69.78
2022-08-14T02:51:02.648Z,69.71
2022-08-14T02:52:26.869Z,69.85
2022-08-14T02:53:33.362Z,69.82
2022-08-14T02:54:36.067Z,69.90
2022-08-14T02:55:40.194Z,69.88
2022-08-14T02:57:16.499Z,70.02
2022-08-14T02:58:06.629Z,70.07
2022-08-14T02:59:10.174Z,70.06
2022-08-14T03:00:18.538Z,70.12
2022-08-14T03:01:24.158Z,69.98
2022-08-14T03:02:56.811Z,70.16
2022-08-14T03:03:58.495Z,70.21
2022-08-14T03:05:01.563Z,70.38
2022-08-14T03:06:05.556Z,70.15
2022-08-14T03:07:09.601Z,70.28
2022-08-14T03:08:15.973Z,70.13
2022-08-14T03:09:20.019Z,70.38
2022-08-14T03:10:28.221Z,70.23
2022-08-14T03:11:35.392Z,70.64
2022-08-14T03:12:37.658Z,70.66
2022-08-14T03:13:42.716Z,70.41
2022-08-14T03:14:47.584Z,70.38
2022-08-14T03:15:55.796Z,70.56
2022-08-14T03:16:58.710Z,70.53
2022-08-14T03:18:02.429Z,70.58
2022-08-14T03:19:07.750Z,70.48
2022-08-14T03:20:11.989Z,70.69
2022-08-14T03:21:16.648Z,70.81
2022-08-14T03:22:19.753Z,70.74
2022-08-14T03:23:22.011Z,70.73
2022-08-14T03:24:26.651Z,70.80
2022-08-14T03:25:31.422Z,70.86
2022-08-14T03:26:34.663Z,70.86
2022-08-14T03:27:47.979Z,70.96
2022-08-14T03:29:01.542Z,70.80
2022-08-14T03:30:05.440Z,71.03
2022-08-14T03:31:13.217Z,71.01
2022-08-14T03:32:16.147Z,71.07
2022-08-14T03:33:20.550Z,71.31
2022-08-14T03:34:24.734Z,71.33
2022-08-14T03:36:05.629Z,71.34
2022-08-14T03:37:38.905Z,71.30
2022-08-14T03:39:12.323Z,71.39
2022-08-14T03:39:59.130Z,71.50
2022-08-14T03:41:02.604Z,71.42
2022-08-14T03:42:19.237Z,71.55
2022-08-14T03:43:21.813Z,71.60
2022-08-14T03:45:18.747Z,71.55
2022-08-14T03:45:49.123Z,71.96
2022-08-14T03:46:54.484Z,71.72
2022-08-14T03:48:01.855Z,71.96
2022-08-14T03:49:05.301Z,71.88
2022-08-14T03:50:11.253Z,71.96
2022-08-14T03:51:14.223Z,71.95
2022-08-14T03:52:38.803Z,72.11
2022-08-14T03:53:43.795Z,72.22
2022-08-14T03:54:52.452Z,72.08
2022-08-14T03:55:59.033Z,72.13
2022-08-14T03:57:02.861Z,72.14
2022-08-14T03:58:07.211Z,72.27
2022-08-14T03:59:17.918Z,72.17
2022-08-14T04:00:40.568Z,72.15
2022-08-14T04:01:45.836Z,72.40
2022-08-14T04:03:01.474Z,72.41
2022-08-14T04:04:06.195Z,72.37
2022-08-14T04:05:13.145Z,72.24
2022-08-14T04:06:21.064Z,72.44
2022-08-14T04:07:24.366Z,72.60
2022-08-14T04:08:30.592Z,72.84
2022-08-14T04:09:35.112Z,72.88
2022-08-14T04:10:38.434Z,72.83
2022-08-14T04:11:43.869Z,72.99
2022-08-14T04:12:51.580Z,73.15
2022-08-14T04:13:55.264Z,73.16
2022-08-14T04:14:58.238Z,73.18
2022-08-14T04:16:04.997Z,73.18
2022-08-14T04:17:09.924Z,73.29
2022-08-14T04:18:13.864Z,73.33
2022-08-14T04:19:23.884Z,73.46
2022-08-14T04:20:28.429Z,73.45
2022-08-14T04:21:54.347Z,73.46
2022-08-14T04:22:55.773Z,73.45
2022-08-14T04:23:59.647Z,73.46
2022-08-14T04:25:05.073Z,73.50
2022-08-14T04:26:14.412Z,73.54
2022-08-14T04:27:19.251Z,73.42
2022-08-14T04:29:08.008Z,73.46
2022-08-14T04:29:45.332Z,73.79
2022-08-14T04:30:47.599Z,73.56
2022-08-14T04:33:01.835Z,73.57
2022-08-14T04:33:20.803Z,73.48
2022-08-14T04:34:27.227Z,73.59
2022-08-14T04:35:55.395Z,73.52
2022-08-14T04:37:11.709Z,73.60
2022-08-14T04:38:36.796Z,73.42
2022-08-14T04:39:59.081Z,73.78
2022-08-14T04:41:19.687Z,73.66
2022-08-14T04:42:47.150Z,73.62
2022-08-14T04:43:55.010Z,73.47
2022-08-14T04:45:00.599Z,73.59
2022-08-14T04:46:04.185Z,73.59
2022-08-14T04:47:27.493Z,73.35
2022-08-14T04:48:43.218Z,73.40
2022-08-14T04:49:57.442Z,73.57
2022-08-14T04:51:03.464Z,73.29
2022-08-14T04:52:15.402Z,73.48
2022-08-14T04:53:35.678Z,73.47
2022-08-14T04:54:38.304Z,73.20
2022-08-14T04:55:45.097Z,73.27
2022-08-14T04:56:49.058Z,73.35
2022-08-14T04:57:52.499Z,73.00
2022-08-14T04:59:01.476Z,73.04
2022-08-14T05:00:16.197Z,72.99
2022-08-14T05:01:21.251Z,73.05
2022-08-14T05:02:24.572Z,72.91
2022-08-14T05:03:30.076Z,73.09
2022-08-14T05:04:32.896Z,73.01
2022-08-14T05:05:35.990Z,72.64
2022-08-14T05:06:39.787Z,72.80
2022-08-14T05:07:54.670Z,72.77
2022-08-14T05:09:04.513Z,73.01
2022-08-14T05:10:12.659Z,72.93
2022-08-14T05:11:15.951Z,72.96
2022-08-14T05:13:10.856Z,72.76
2022-08-14T05:15:07.850Z,72.78
2022-08-14T05:16:13.202Z,72.64
2022-08-14T05:17:17.918Z,72.47
2022-08-14T05:19:17.207Z,72.58
2022-08-14T05:21:55.530Z,72.57
2022-08-14T05:22:00.352Z,72.60
2022-08-14T05:22:32.652Z,72.64
2022-08-14T05:23:39.042Z,72.56
2022-08-14T05:24:43.939Z,72.60
2022-08-14T05:25:48.518Z,72.86
2022-08-14T05:26:54.795Z,72.67
2022-08-14T05:28:00.514Z,72.52
2022-08-14T05:29:04.517Z,72.46
2022-08-14T05:30:16.732Z,72.42
2022-08-14T05:31:20.702Z,72.56
2022-08-14T05:32:27.447Z,72.46
2022-08-14T05:33:31.413Z,72.70
2022-08-14T05:34:35.280Z,72.52
2022-08-14T05:35:37.861Z,72.32
2022-08-14T05:36:50.570Z,72.40
2022-08-14T05:38:10.540Z,72.08
2022-08-14T05:39:13.029Z,72.45
2022-08-14T05:40:17.132Z,72.02
2022-08-14T05:41:21.886Z,72.10
2022-08-14T05:42:27.075Z,72.01
2022-08-14T05:43:41.442Z,72.14
2022-08-14T05:44:46.246Z,72.04
2022-08-14T05:45:49.631Z,71.83
2022-08-14T05:46:52.435Z,71.74
2022-08-14T05:47:58.134Z,71.80
2022-08-14T05:49:00.158Z,71.50
2022-08-14T05:50:03.194Z,71.28
2022-08-14T05:51:07.275Z,71.03
2022-08-14T05:52:10.607Z,70.93
2022-08-14T05:53:19.820Z,70.66
2022-08-14T05:54:27.081Z,70.75
2022-08-14T05:55:29.606Z,70.70
2022-08-14T05:56:36.902Z,70.47
2022-08-14T05:57:49.898Z,70.49
2022-08-14T05:58:53.041Z,70.31
2022-08-14T05:59:56.476Z,70.09
2022-08-14T06:00:59.882Z,70.01
2022-08-14T06:02:02.042Z,70.12
2022-08-14T06:03:11.171Z,70.12
2022-08-14T06:04:13.256Z,70.05
2022-08-14T06:05:23.400Z,70.07
2022-08-14T06:06:26.519Z,69.89
2022-08-14T06:07:28.500Z,69.90
2022-08-14T06:08:36.572Z,70.00
2022-08-14T06:09:51.000Z,69.81
2022-08-14T06:11:02.921Z,70.04
2022-08-14T06:12:06.485Z,70.04
2022-08-14T06:13:09.975Z,69.83
2022-08-14T06:14:21.015Z,70.04
2022-08-14T06:15:30.645Z,69.87
2022-08-14T06:16:33.942Z,69.93
2022-08-14T06:17:45.882Z,69.64
2022-08-14T06:19:11.818Z,70.26
2022-08-14T06:20:22.054Z,69.94
2022-08-14T06:21:26.012Z,69.94
2022-08-14T06:22:28.172Z,70.19
2022-08-14T06:23:32.060Z,70.04
2022-08-14T06:24:35.810Z,70.01
2022-08-14T06:25:38.946Z,69.92
2022-08-14T06:26:40.995Z,70.15
2022-08-14T06:27:46.279Z,69.87
2022-08-14T06:28:52.198Z,69.72
2022-08-14T06:29:55.755Z,69.56
2022-08-14T06:31:00.678Z,69.61
2022-08-14T06:32:37.574Z,69.68
2022-08-14T06:33:30.122Z,69.95
2022-08-14T06:35:03.560Z,69.93
2022-08-14T06:36:13.567Z,69.69
2022-08-14T06:37:20.454Z,69.75
2022-08-14T06:38:24.504Z,69.86
2022-08-14T06:39:36.487Z,69.66
2022-08-14T06:40:42.934Z,69.71
2022-08-14T06:41:57.203Z,69.39
2022-08-14T06:43:03.950Z,69.55
2022-08-14T06:44:06.095Z,68.98
2022-08-14T06:45:13.300Z,69.09
2022-08-14T06:46:23.327Z,68.95
2022-08-14T06:47:35.653Z,68.86
2022-08-14T06:48:39.419Z,68.87
2022-08-14T06:49:56.499Z,68.60
2022-08-14T06:51:01.400Z,68.49
2022-08-14T06:52:04.902Z,68.28
2022-08-14T06:53:08.596Z,68.35
2022-08-14T06:54:10.918Z,68.35
2022-08-14T06:55:16.920Z,67.99
2022-08-14T06:56:21.107Z,67.97
2022-08-14T06:57:23.150Z,67.98
2022-08-14T06:58:28.821Z,67.86
2022-08-14T06:59:32.060Z,67.69
2022-08-14T07:00:36.933Z,67.65
2022-08-14T07:02:01.768Z,67.50
2022-08-14T07:03:22.571Z,67.30
2022-08-14T07:04:45.248Z,66.82
2022-08-14T07:05:58.235Z,66.84
2022-08-14T07:07:02.262Z,66.49
2022-08-14T07:08:06.682Z,66.69
2022-08-14T07:09:11.504Z,66.29
2022-08-14T07:10:17.319Z,66.51
2022-08-14T07:11:20.855Z,66.19
2022-08-14T07:12:54.401Z,65.69
2022-08-14T07:13:46.667Z,65.71
2022-08-14T07:14:50.973Z,65.78
2022-08-14T07:15:56.557Z,65.81
2022-08-14T07:17:02.058Z,65.35
2022-08-14T07:18:08.986Z,65.39
2022-08-14T07:19:12.367Z,65.17
2022-08-14T07:20:14.853Z,65.22
2022-08-14T07:21:21.998Z,65.34
2022-08-14T07:22:24.505Z,65.31
2022-08-14T07:23:40.008Z,65.25
2022-08-14T07:24:42.396Z,65.60
2022-08-14T07:25:46.804Z,65.70
2022-08-14T07:26:49.544Z,65.60
2022-08-14T07:27:52.783Z,65.55
2022-08-14T07:28:56.559Z,65.37
2022-08-14T07:29:59.435Z,65.71
2022-08-14T07:31:07.831Z,65.61
2022-08-14T07:32:12.844Z,65.54
2022-08-14T07:33:29.879Z,65.65
2022-08-14T07:34:40.544Z,65.69
2022-08-14T07:35:58.373Z,65.54
2022-08-14T07:37:02.240Z,65.79
2022-08-14T07:38:04.796Z,65.50
2022-08-14T07:39:12.266Z,65.45
2022-08-14T07:40:15.885Z,65.57
2022-08-14T07:41:33.831Z,65.01
2022-08-14T07:42:39.286Z,65.00
2022-08-14T07:43:53.186Z,64.79
2022-08-14T07:44:58.445Z,64.59
2022-08-14T07:46:01.832Z,64.51
2022-08-14T07:47:05.439Z,64.25
2022-08-14T07:48:15.041Z,64.29
2022-08-14T07:49:19.916Z,63.56
2022-08-14T07:50:23.180Z,63.83
2022-08-14T07:51:26.070Z,63.64
2022-08-14T07:52:40.289Z,63.08
2022-08-14T07:53:44.897Z,63.34
2022-08-14T07:54:50.632Z,63.13
2022-08-14T07:56:00.353Z,63.16
2022-08-14T07:57:22.366Z,62.77
2022-08-14T07:58:33.831Z,62.90
2022-08-14T07:59:42.664Z,62.83
2022-08-14T08:00:51.440Z,63.21
2022-08-14T08:01:59.157Z,63.07
2022-08-14T08:03:04.095Z,62.91
2022-08-14T08:04:16.731Z,62.16
2022-08-14T08:05:28.804Z,61.83
2022-08-14T08:06:31.065Z,61.88
2022-08-14T08:07:34.952Z,62.10
2022-08-14T08:08:43.526Z,61.92
2022-08-14T08:09:53.798Z,61.69
2022-08-14T08:11:02.507Z,61.42
2022-08-14T08:12:09.172Z,61.35
2022-08-14T08:13:14.582Z,61.21
2022-08-14T08:14:18.216Z,60.93
2022-08-14T08:15:21.500Z,61.01
2022-08-14T08:16:24.940Z,61.06
2022-08-14T08:17:35.094Z,60.48
2022-08-14T08:18:42.304Z,60.66
2022-08-14T08:19:48.206Z,60.48
2022-08-14T08:20:59.560Z,59.92
2022-08-14T08:22:03.500Z,60.33
2022-08-14T08:23:08.245Z,60.23
2022-08-14T08:24:22.605Z,60.28
2022-08-14T08:25:26.623Z,59.79
2022-08-14T08:26:32.291Z,58.98
2022-08-14T08:27:34.403Z,58.84
2022-08-14T08:28:37.542Z,58.75
2022-08-14T08:29:39.773Z,58.92
2022-08-14T08:30:56.272Z,58.76
2022-08-14T08:32:01.421Z,58.41
2022-08-14T08:33:11.205Z,58.34
2022-08-14T08:34:14.247Z,57.72
2022-08-14T08:35:25.660Z,57.53
2022-08-14T08:36:48.749Z,57.36
2022-08-14T08:38:01.017Z,56.91
2022-08-14T08:39:17.532Z,56.93
2022-08-14T08:40:31.435Z,56.83
2022-08-14T08:41:43.402Z,57.03
2022-08-14T08:42:45.752Z,57.58
2022-08-14T08:44:05.778Z,57.14
2022-08-14T08:45:22.341Z,57.00
2022-08-14T08:46:27.068Z,57.05
2022-08-14T08:47:38.519Z,56.82
2022-08-14T08:48:52.202Z,56.78
2022-08-14T08:50:00.077Z,57.07
2022-08-14T08:51:05.258Z,56.65
2022-08-14T08:52:15.144Z,56.59
2022-08-14T08:53:32.580Z,57.00
2022-08-14T08:54:35.046Z,56.71
2022-08-14T08:55:41.324Z,56.97
2022-08-14T08:56:46.079Z,56.92
2022-08-14T08:57:55.672Z,56.83
2022-08-14T08:58:57.744Z,56.59
2022-08-14T09:00:09.950Z,56.38
2022-08-14T09:01:29.524Z,56.51
2022-08-14T09:02:31.695Z,56.00
2022-08-14T09:03:40.783Z,56.09
2022-08-14T09:04:53.469Z,55.82
2022-08-14T09:05:58.498Z,55.80
2022-08-14T09:07:10.265Z,55.35
2022-08-14T09:08:26.630Z,55.29
2022-08-14T09:09:54.466Z,55.57
2022-08-14T09:11:18.780Z,55.11
2022-08-14T09:12:22.441Z,54.49
2022-08-14T09:13:26.417Z,54.82
2022-08-14T09:14:31.840Z,54.37
2022-08-14T09:15:36.765Z,53.94
2022-08-14T09:16:50.344Z,53.84
2022-08-14T09:17:54.666Z,53.90
2022-08-14T09:18:58.405Z,53.56
2022-08-14T09:20:04.131Z,53.49
2022-08-14T09:21:09.225Z,53.21
2022-08-14T09:22:36.042Z,52.96
2022-08-14T09:24:26.590Z,53.29
2022-08-14T09:25:01.693Z,52.73
2022-08-14T09:26:21.083Z,52.85
2022-08-14T09:27:23.754Z,52.25
2022-08-14T09:28:26.848Z,52.68
2022-08-14T09:29:31.766Z,52.39
2022-08-14T09:30:38.979Z,52.40
2022-08-14T09:31:53.272Z,52.44
2022-08-14T09:33:23.006Z,52.60
2022-08-14T09:34:58.555Z,52.37
2022-08-14T09:36:18.526Z,52.68
2022-08-14T09:37:35.842Z,52.25
2022-08-14T09:38:46.806Z,52.07
2022-08-14T09:40:01.037Z,52.22
2022-08-14T09:41:13.742Z,52.23
2022-08-14T09:42:50.230Z,52.24
2022-08-14T09:44:00.020Z,52.39
2022-08-14T09:45:16.848Z,51.77
2022-08-14T09:46:21.350Z,51.68
2022-08-14T09:47:42.219Z,51.51
2022-08-14T09:48:45.677Z,51.06
2022-08-14T09:49:52.983Z,50.78
2022-08-14T09:50:58.309Z,50.80
2022-08-14T09:52:06.182Z,50.60
2022-08-14T09:54:19.005Z,50.36
2022-08-14T09:55:18.613Z,50.74
2022-08-14T09:56:30.286Z,50.63
2022-08-14T09:57:33.612Z,50.56
2022-08-14T09:58:39.227Z,50.62
2022-08-14T09:59:44.847Z,50.20
2022-08-14T10:00:52.792Z,50.40
2022-08-14T10:01:57.212Z,50.29
2022-08-14T10:03:05.513Z,50.17
2022-08-14T10:04:34.599Z,49.41
2022-08-14T10:05:40.707Z,49.42
2022-08-14T10:06:45.133Z,49.16
2022-08-14T10:07:53.749Z,49.25
2022-08-14T10:09:12.032Z,49.60
2022-08-14T10:10:29.091Z,49.51
2022-08-14T10:11:43.400Z,49.13
2022-08-14T10:12:52.939Z,49.20
2022-08-14T10:14:04.313Z,49.02
2022-08-14T10:15:18.514Z,49.13
2022-08-14T10:16:30.409Z,49.01
2022-08-14T10:17:38.889Z,49.30
2022-08-14T10:18:42.844Z,48.70
2022-08-14T10:19:48.516Z,48.56
2022-08-14T10:20:57.817Z,48.95
2022-08-14T10:23:14.402Z,48.89
2022-08-14T10:23:30.018Z,48.65
2022-08-14T10:24:42.059Z,48.28
2022-08-14T10:25:50.757Z,48.38
2022-08-14T10:27:01.011Z,48.25
2022-08-14T10:28:05.330Z,47.96
2022-08-14T10:29:23.737Z,47.56
2022-08-14T10:30:35.631Z,47.66
2022-08-14T10:31:45.317Z,47.46
2022-08-14T10:32:52.450Z,47.83
2022-08-14T10:34:04.291Z,47.88
2022-08-14T10:35:16.736Z,47.82
2022-08-14T10:36:40.653Z,47.57
2022-08-14T10:37:56.921Z,47.34
2022-08-14T10:39:05.186Z,47.66
2022-08-14T10:40:37.658Z,47.47
2022-08-14T10:41:48.562Z,47.69
2022-08-14T10:42:58.435Z,47.59
2022-08-14T10:44:21.373Z,48.00
2022-08-14T10:45:26.764Z,47.82
2022-08-14T10:47:41.068Z,48.12
2022-08-14T10:48:24.568Z,47.63
2022-08-14T10:49:50.085Z,47.21
2022-08-14T10:50:57.355Z,47.13
2022-08-14T10:52:08.091Z,46.76
2022-08-14T10:53:10.435Z,46.90
2022-08-14T10:54:26.317Z,46.65
2022-08-14T10:55:45.045Z,46.70
2022-08-14T10:56:48.237Z,45.89
2022-08-14T10:57:53.537Z,46.04
2022-08-14T10:59:01.312Z,45.40
2022-08-14T11:00:20.603Z,45.65
2022-08-14T11:01:40.962Z,45.52
2022-08-14T11:02:54.560Z,45.14
2022-08-14T11:03:58.331Z,45.60
2022-08-14T11:05:07.704Z,45.75
2022-08-14T11:06:20.097Z,45.69
2022-08-14T11:07:22.425Z,45.85
2022-08-14T11:08:32.799Z,45.30
2022-08-14T11:09:35.950Z,46.07
2022-08-14T11:10:48.382Z,46.05
2022-08-14T11:11:55.628Z,46.42
2022-08-14T11:12:59.448Z,46.48
2022-08-14T11:14:01.408Z,46.36
2022-08-14T11:15:08.009Z,46.31
2022-08-14T11:16:11.159Z,46.78
2022-08-14T11:17:14.679Z,46.65
2022-08-14T11:18:32.361Z,46.76
2022-08-14T11:19:40.016Z,46.54
2022-08-14T11:20:48.882Z,46.68
2022-08-14T11:21:56.102Z,46.91
2022-08-14T11:23:00.866Z,46.81
2022-08-14T11:24:54.384Z,47.25
2022-08-14T11:25:44.056Z,47.06
2022-08-14T11:26:56.163Z,47.24
2022-08-14T11:28:00.997Z,47.39
2022-08-14T11:29:05.773Z,47.39
2022-08-14T11:30:51.296Z,47.70
2022-08-14T11:31:38.925Z,47.57
2022-08-14T11:32:43.797Z,47.77
2022-08-14T11:33:51.281Z,47.42
2022-08-14T11:34:53.544Z,47.45
2022-08-14T11:36:00.468Z,47.58
2022-08-14T11:37:22.924Z,47.41
2022-08-14T11:38:38.432Z,47.71
2022-08-14T11:39:41.708Z,47.47
2022-08-14T11:40:49.334Z,47.84
2022-08-14T11:41:55.686Z,47.92
2022-08-14T11:43:01.301Z,47.94
2022-08-14T11:44:04.756Z,47.88
2022-08-14T11:45:18.985Z,48.04
2022-08-14T11:46:30.805Z,48.12
2022-08-14T11:47:43.988Z,47.60
2022-08-14T11:49:05.557Z,47.90
2022-08-14T11:50:33.657Z,48.45
2022-08-14T11:51:53.576Z,47.98
2022-08-14T11:53:02.182Z,48.28
2022-08-14T11:54:06.374Z,47.96
2022-08-14T11:55:13.652Z,48.25
2022-08-14T11:56:17.682Z,47.76
2022-08-14T11:57:20.075Z,47.67
2022-08-14T11:58:29.168Z,47.88
2022-08-14T11:59:33.892Z,47.82
2022-08-14T12:00:48.759Z,47.73
2022-08-14T12:01:52.733Z,47.57
2022-08-14T12:03:02.920Z,47.60
2022-08-14T12:04:32.432Z,47.57
2022-08-14T12:05:39.907Z,47.19
2022-08-14T12:06:49.151Z,47.38
2022-08-14T12:07:54.925Z,47.32
2022-08-14T12:09:00.203Z,46.79
2022-08-14T12:10:26.971Z,46.78
2022-08-14T12:11:27.980Z,47.05
2022-08-14T12:12:35.860Z,46.90
2022-08-14T12:13:44.432Z,46.64
2022-08-14T12:15:00.349Z,46.78
2022-08-14T12:16:11.195Z,46.47
2022-08-14T12:17:25.216Z,46.70
2022-08-14T12:18:35.799Z,46.52
2022-08-14T12:19:51.221Z,46.36
2022-08-14T12:20:59.990Z,46.72
2022-08-14T12:22:02.881Z,46.69
2022-08-14T12:23:08.404Z,46.55
2022-08-14T12:24:35.792Z,47.04
2022-08-14T12:25:36.724Z,47.34
2022-08-14T12:26:41.438Z,47.06
2022-08-14T12:27:52.544Z,47.28
2022-08-14T12:29:09.206Z,47.22
2022-08-14T12:30:14.728Z,47.65
2022-08-14T12:31:24.795Z,47.37
2022-08-14T12:32:43.350Z,47.40
2022-08-14T12:33:59.838Z,47.13
2022-08-14T12:35:02.060Z,46.89
2022-08-14T12:36:12.306Z,47.21
2022-08-14T12:37:32.360Z,47.21
2022-08-14T12:38:38.477Z,47.36
2022-08-14T12:39:42.187Z,48.05
2022-08-14T12:40:48.645Z,47.44
2022-08-14T12:41:57.146Z,47.58
2022-08-14T12:43:03.321Z,47.49
2022-08-14T12:44:09.613Z,47.35
2022-08-14T12:45:17.364Z,47.28
2022-08-14T12:46:29.150Z,47.66
2022-08-14T12:47:32.529Z,48.02
2022-08-14T12:48:50.400Z,48.19
2022-08-14T12:49:59.339Z,47.91
2022-08-14T12:51:01.678Z,48.29
2022-08-14T12:52:16.982Z,48.41
2022-08-14T12:53:20.883Z,48.26
2022-08-14T12:54:29.329Z,48.49
2022-08-14T12:56:18.345Z,48.00
2022-08-14T12:57:09.262Z,48.35
2022-08-14T12:58:28.684Z,48.01
2022-08-14T12:59:43.185Z,48.61
2022-08-14T13:01:14.460Z,48.62
2022-08-14T13:02:25.883Z,48.51
2022-08-14T13:03:29.818Z,48.55
2022-08-14T13:04:36.948Z,48.67
2022-08-14T13:05:42.714Z,48.69
2022-08-14T13:06:51.449Z,48.35
2022-08-14T13:07:54.412Z,48.76
2022-08-14T13:08:59.984Z,48.74
2022-08-14T13:10:46.249Z,48.84
2022-08-14T13:11:41.048Z,48.70
2022-08-14T13:13:10.003Z,48.74
2022-08-14T13:14:09.614Z,48.59
2022-08-14T13:15:21.913Z,48.39
2022-08-14T13:16:38.000Z,48.52
2022-08-14T13:17:43.702Z,48.72
2022-08-14T13:18:48.392Z,48.67
2022-08-14T13:20:02.635Z,48.38
2022-08-14T13:21:16.778Z,48.39
2022-08-14T13:22:33.490Z,48.23
2022-08-14T13:23:44.173Z,47.97
2022-08-14T13:24:49.187Z,48.27
2022-08-14T13:25:55.647Z,48.04
2022-08-14T13:27:04.156Z,47.83
2022-08-14T13:28:10.894Z,47.89
2022-08-14T13:29:15.817Z,47.22
2022-08-14T13:30:23.281Z,46.94
2022-08-14T13:31:34.250Z,46.47
2022-08-14T13:32:39.527Z,46.50
2022-08-14T13:33:42.803Z,46.13
2022-08-14T13:34:52.765Z,46.02
2022-08-14T13:35:57.211Z,45.31
2022-08-14T13:37:04.235Z,45.59
2022-08-14T13:38:07.951Z,45.32
2022-08-14T13:39:15.631Z,45.17
2022-08-14T13:40:20.037Z,45.17
2022-08-14T13:41:31.587Z,45.01
2022-08-14T13:42:37.901Z,44.40
2022-08-14T13:43:49.437Z,44.14
2022-08-14T13:45:06.436Z,43.94
2022-08-14T13:46:11.405Z,43.77
2022-08-14T13:47:15.276Z,43.44
2022-08-14T13:48:32.495Z,43.12
2022-08-14T13:49:37.525Z,42.83
2022-08-14T13:50:42.211Z,42.43
2022-08-14T13:51:53.873Z,42.14
2022-08-14T13:53:01.320Z,41.45
2022-08-14T13:54:10.837Z,40.99
2022-08-14T13:55:18.669Z,40.90
2022-08-14T13:56:36.483Z,40.28
2022-08-14T13:57:49.401Z,39.28
2022-08-14T13:59:06.386Z,38.52
2022-08-14T14:00:11.410Z,37.97
2022-08-14T14:01:18.876Z,37.17
2022-08-14T14:02:31.977Z,37.13
2022-08-14T14:03:38.157Z,36.70
2022-08-14T14:04:42.586Z,36.45
2022-08-14T14:05:54.329Z,36.10
2022-08-14T14:07:00.623Z,35.68
2022-08-14T14:08:07.164Z,34.26
2022-08-14T14:09:11.311Z,34.40
2022-08-14T14:10:16.823Z,33.83
2022-08-14T14:11:23.866Z,32.83
2022-08-14T14:12:40.676Z,30.76
2022-08-14T14:13:45.110Z,31.76
2022-08-14T14:14:51.825Z,31.40
2022-08-14T14:16:03.848Z,31.36
2022-08-14T14:17:06.902Z,30.93
2022-08-14T14:18:29.662Z,31.35
2022-08-14T14:19:35.131Z,31.02
2022-08-14T14:20:39.116Z,31.37
2022-08-14T14:21:42.286Z,30.89
2022-08-14T14:23:01.202Z,31.23
2022-08-14T14:24:05.951Z,31.00
2022-08-14T14:25:08.818Z,32.93
2022-08-14T14:26:19.971Z,35.38
2022-08-14T14:27:41.122Z,34.65
2022-08-14T14:28:50.522Z,35.39
2022-08-14T14:29:57.872Z,35.97
2022-08-14T14:31:06.204Z,36.55
2022-08-14T14:32:11.378Z,36.55
2022-08-14T14:33:46.888Z,36.90
2022-08-14T14:34:53.936Z,36.93
2022-08-14T14:35:59.060Z,37.08
2022-08-14T14:37:04.979Z,37.20
2022-08-14T14:38:13.009Z,37.76
2022-08-14T14:39:23.389Z,37.58
2022-08-14T14:40:53.622Z,37.67
2022-08-14T14:41:56.220Z,37.92
2022-08-14T14:43:04.006Z,37.69
2022-08-14T14:44:13.617Z,38.14
2022-08-14T14:45:21.453Z,38.00
2022-08-14T14:46:36.910Z,37.89
2022-08-14T14:47:42.515Z,37.69
2022-08-14T14:48:46.805Z,38.03
2022-08-14T14:49:58.322Z,37.93
2022-08-14T14:51:01.497Z,37.88
2022-08-14T14:52:05.416Z,38.10
2022-08-14T14:53:12.998Z,38.09
2022-08-14T14:54:17.986Z,38.50
2022-08-14T14:55:21.163Z,38.51
2022-08-14T14:56:50.166Z,38.69